Time;durP1;ratioP1;P1;durP2;ratioP2;P2;SDS_P1;SDS_P2;PMS_P1;PMS_P2;Temp;Humidity;BMP_temperature;BMP_pressure;BME280_temperature;BME280_humidity;BME280_pressure;Samples;Min_cycle;Max_cycle;Signal;HPM_P1;HPM_P2
2023/10/04 00:01:39;;;;;;;2.15;1.40;;;9.50;99.90;;;;;;8356260;28;20013;-82
2023/10/04 00:05:39;;;;;;;3.33;1.58;;;9.40;99.90;;;;;;8366555;28;20047;-82
2023/10/04 00:09:41;;;;;;;2.85;1.40;;;9.30;99.90;;;;;;8349580;28;20033;-83
2023/10/04 00:13:43;;;;;;;2.60;1.42;;;9.20;99.90;;;;;;8365847;28;20021;-82
2023/10/04 00:17:44;;;;;;;2.03;1.55;;;9.20;99.90;;;;;;8314153;28;1047760;-83
2023/10/04 00:21:45;;;;;;;2.78;1.30;;;9.20;99.90;;;;;;8359661;28;20024;-83
2023/10/04 00:25:45;;;;;;;3.35;1.30;;;9.10;99.90;;;;;;8350522;28;20043;-83
2023/10/04 00:29:46;;;;;;;2.63;1.70;;;9.10;99.90;;;;;;8357980;28;20025;-83
2023/10/04 00:33:49;;;;;;;1.60;1.23;;;9.20;99.90;;;;;;8356263;28;20612;-82
2023/10/04 00:37:55;;;;;;;2.83;1.30;;;9.30;99.90;;;;;;8350566;28;20029;-83
2023/10/04 00:41:56;;;;;;;2.85;1.30;;;9.20;99.90;;;;;;8356663;28;20025;-83
2023/10/04 00:45:57;;;;;;;2.72;1.35;;;9.10;99.90;;;;;;8355637;28;20033;-82
2023/10/04 00:50:01;;;;;;;3.47;1.60;;;9.00;99.90;;;;;;8346607;28;20021;-83
2023/10/04 00:54:12;;;;;;;4.38;1.30;;;8.90;99.90;;;;;;8337094;28;20017;-82
2023/10/04 00:58:17;;;;;;;1.80;1.17;;;8.90;99.90;;;;;;8360018;28;20514;-83
2023/10/04 01:02:17;;;;;;;4.25;1.60;;;8.80;99.90;;;;;;8347195;28;20573;-83
2023/10/04 01:06:19;;;;;;;2.25;1.38;;;8.80;99.90;;;;;;8368072;28;20078;-82
2023/10/04 01:10:27;;;;;;;2.15;1.45;;;8.80;99.90;;;;;;8349817;28;20029;-83
2023/10/04 01:14:37;;;;;;;2.60;1.52;;;8.90;99.90;;;;;;8366915;28;20100;-82
2023/10/04 01:18:38;;;;;;;2.08;1.20;;;8.90;99.90;;;;;;8352589;28;20025;-83
2023/10/04 01:22:39;;;;;;;2.88;1.30;;;8.80;99.90;;;;;;8363067;28;20053;-82
2023/10/04 01:26:41;;;;;;;1.95;1.05;;;8.60;99.90;;;;;;8359982;28;20021;-83
2023/10/04 01:30:44;;;;;;;1.92;1.17;;;8.40;99.90;;;;;;8366800;28;20029;-82
2023/10/04 01:34:45;;;;;;;1.95;1.20;;;8.30;99.90;;;;;;8366853;28;20103;-83
2023/10/04 01:38:47;;;;;;;2.35;1.33;;;8.30;99.90;;;;;;8354781;28;20435;-82
2023/10/04 01:42:47;;;;;;;1.90;1.25;;;8.30;99.90;;;;;;8354263;28;20071;-82
2023/10/04 01:46:48;;;;;;;3.15;1.42;;;8.30;99.90;;;;;;8348081;28;20083;-82
2023/10/04 01:50:52;;;;;;;1.75;1.30;;;8.30;99.90;;;;;;8347765;28;20025;-82
2023/10/04 01:54:53;;;;;;;4.57;1.70;;;8.30;99.90;;;;;;8335641;28;20025;-82
2023/10/04 01:58:54;;;;;;;3.05;1.63;;;8.10;99.90;;;;;;8340735;28;20055;-82
2023/10/04 02:02:55;;;;;;;1.80;1.30;;;8.00;99.90;;;;;;8343177;28;20492;-82
2023/10/04 02:06:55;;;;;;;2.95;1.15;;;7.90;99.90;;;;;;8354548;28;20039;-83
2023/10/04 02:10:57;;;;;;;1.63;1.30;;;7.70;99.90;;;;;;8355857;28;20134;-83
2023/10/04 02:14:58;;;;;;;2.28;1.38;;;7.60;99.90;;;;;;8365928;28;20086;-82
2023/10/04 02:18:59;;;;;;;2.75;1.40;;;7.50;99.90;;;;;;8366009;28;20087;-83
2023/10/04 02:23:02;;;;;;;2.88;1.20;;;7.40;99.90;;;;;;8365309;28;20021;-82
2023/10/04 02:27:03;;;;;;;3.40;1.38;;;7.50;99.90;;;;;;8341068;28;20667;-82
2023/10/04 02:31:03;;;;;;;3.95;1.50;;;7.50;99.90;;;;;;8362975;28;20029;-82
2023/10/04 02:35:05;;;;;;;1.98;1.60;;;7.50;99.90;;;;;;8365041;28;20068;-82
2023/10/04 02:39:11;;;;;;;2.22;1.58;;;7.50;99.90;;;;;;8364326;28;20027;-82
2023/10/04 02:43:15;;;;;;;2.55;1.30;;;7.40;99.90;;;;;;8346655;28;20021;-83
2023/10/04 02:47:16;;;;;;;2.65;1.40;;;7.50;99.90;;;;;;8346054;28;20021;-82
2023/10/04 02:51:16;;;;;;;1.77;1.20;;;7.50;99.90;;;;;;8349669;28;20470;-83
2023/10/04 02:55:18;;;;;;;3.45;1.30;;;7.30;99.90;;;;;;8349968;28;20072;-82
2023/10/04 02:59:19;;;;;;;4.65;1.48;;;7.10;99.90;;;;;;8335440;28;20071;-82
2023/10/04 03:03:21;;;;;;;4.88;1.42;;;6.90;99.90;;;;;;8344445;28;20020;-82
2023/10/04 03:07:22;;;;;;;2.83;1.48;;;6.80;99.90;;;;;;8349217;28;20048;-82
2023/10/04 03:11:23;;;;;;;1.80;1.30;;;6.80;99.90;;;;;;8346643;28;20028;-82
2023/10/04 03:15:24;;;;;;;3.50;1.75;;;6.70;99.90;;;;;;8359943;28;20033;-81
2023/10/04 03:19:25;;;;;;;2.40;1.50;;;6.60;99.90;;;;;;8346129;28;20025;-82
2023/10/04 03:23:32;;;;;;;2.35;1.50;;;6.50;99.90;;;;;;8351349;28;20021;-82
2023/10/04 03:27:34;;;;;;;2.42;1.45;;;6.40;99.90;;;;;;8351566;28;20021;-82
2023/10/04 03:31:35;;;;;;;2.45;1.60;;;6.40;99.90;;;;;;8350865;28;20049;-82
2023/10/04 03:35:39;;;;;;;2.72;1.50;;;6.40;99.90;;;;;;8345612;28;20075;-83
2023/10/04 03:39:39;;;;;;;2.88;1.25;;;6.10;99.90;;;;;;8364634;28;20404;-82
2023/10/04 03:43:40;;;;;;;2.38;1.58;;;6.00;99.90;;;;;;8352305;28;20025;-83
2023/10/04 03:47:41;;;;;;;2.25;1.30;;;6.10;99.90;;;;;;8340518;28;20114;-82
2023/10/04 03:51:44;;;;;;;1.88;1.38;;;6.00;99.90;;;;;;8361189;28;20036;-82
2023/10/04 03:55:46;;;;;;;1.90;1.42;;;5.90;99.90;;;;;;8346875;28;20116;-82
2023/10/04 03:59:46;;;;;;;3.08;1.80;;;5.80;99.90;;;;;;8340617;28;20108;-82
2023/10/04 04:03:49;;;;;;;3.45;1.90;;;5.80;99.90;;;;;;8346656;28;20130;-82
2023/10/04 04:07:51;;;;;;;3.58;1.60;;;5.70;99.90;;;;;;8363560;28;20029;-82
2023/10/04 04:11:52;;;;;;;3.97;1.92;;;5.60;99.90;;;;;;8344035;28;20040;-82
2023/10/04 04:15:53;;;;;;;7.07;2.40;;;5.60;99.90;;;;;;8349154;28;20029;-82
2023/10/04 04:19:56;;;;;;;2.90;1.83;;;5.70;99.90;;;;;;8345275;28;20516;-82
2023/10/04 04:23:57;;;;;;;2.25;1.42;;;5.70;99.90;;;;;;8350516;28;20037;-83
2023/10/04 04:27:57;;;;;;;2.58;1.60;;;5.70;99.90;;;;;;8350125;28;20055;-82
2023/10/04 04:32:01;;;;;;;2.78;1.70;;;5.80;99.90;;;;;;8362613;28;20033;-83
2023/10/04 04:36:08;;;;;;;1.65;1.27;;;5.70;99.90;;;;;;8362734;28;20059;-83
2023/10/04 04:40:09;;;;;;;2.53;1.38;;;5.70;99.90;;;;;;8346040;28;20534;-82
2023/10/04 04:44:10;;;;;;;3.20;1.60;;;5.80;99.90;;;;;;8354845;28;20027;-83
2023/10/04 04:48:10;;;;;;;5.25;1.50;;;5.90;99.90;;;;;;8362987;28;20065;-82
2023/10/04 04:52:11;;;;;;;1.48;1.10;;;5.90;99.90;;;;;;8344000;28;20021;-81
2023/10/04 04:56:16;;;;;;;1.65;0.93;;;5.80;99.90;;;;;;8360315;28;20044;-82
2023/10/04 05:00:31;;;;;;;2.17;1.40;;;5.50;99.90;;;;;;8345053;28;20025;-82
2023/10/04 05:04:32;;;;;;;1.88;1.30;;;5.30;99.90;;;;;;8365646;28;20028;-81
2023/10/04 05:08:33;;;;;;;1.98;1.30;;;5.30;99.90;;;;;;8352538;28;20025;-82
2023/10/04 05:12:35;;;;;;;1.52;1.10;;;5.20;99.90;;;;;;8349765;28;20060;-82
2023/10/04 05:16:36;;;;;;;2.70;1.63;;;5.00;99.90;;;;;;8350975;28;20507;-82
2023/10/04 05:20:37;;;;;;;2.67;1.50;;;5.00;99.90;;;;;;8347720;28;20020;-82
2023/10/04 05:24:37;;;;;;;2.72;1.70;;;5.00;99.90;;;;;;8352511;28;20032;-82
2023/10/04 05:28:38;;;;;;;2.63;1.60;;;5.00;99.90;;;;;;8367583;28;20025;-82
2023/10/04 05:32:40;;;;;;;3.72;1.67;;;5.00;99.90;;;;;;8348907;28;20052;-81
2023/10/04 05:36:41;;;;;;;4.45;1.98;;;5.10;99.90;;;;;;8351605;28;20456;-82
2023/10/04 05:40:48;;;;;;;3.47;1.60;;;5.10;99.90;;;;;;8366376;28;20032;-81
2023/10/04 05:44:52;;;;;;;3.00;1.52;;;5.10;99.90;;;;;;8344183;28;20036;-82
2023/10/04 05:48:52;;;;;;;2.33;1.58;;;5.20;99.90;;;;;;8349281;28;20655;-81
2023/10/04 05:52:54;;;;;;;3.95;1.92;;;5.40;99.90;;;;;;8339130;28;20029;-82
2023/10/04 05:56:54;;;;;;;2.33;1.70;;;5.40;99.90;;;;;;8337212;28;20083;-80
2023/10/04 06:00:55;;;;;;;5.03;1.88;;;5.80;99.90;;;;;;8357478;28;20025;-82
2023/10/04 06:04:56;;;;;;;3.22;1.92;;;5.90;99.90;;;;;;8362828;28;20386;-82
2023/10/04 06:08:57;;;;;;;3.65;2.00;;;5.90;99.90;;;;;;8366610;28;20021;-82
2023/10/04 06:12:58;;;;;;;3.08;2.00;;;5.90;99.90;;;;;;8347584;28;20043;-82
2023/10/04 06:16:59;;;;;;;2.75;2.17;;;6.00;99.90;;;;;;8356503;28;20081;-83
2023/10/04 06:20:59;;;;;;;3.92;2.05;;;6.10;99.90;;;;;;8353642;28;20025;-82
2023/10/04 06:25:00;;;;;;;3.78;2.05;;;6.20;99.90;;;;;;8365987;28;20056;-83
2023/10/04 06:29:00;;;;;;;3.95;2.08;;;6.30;99.90;;;;;;8347823;28;20025;-82
2023/10/04 06:33:04;;;;;;;9.82;2.58;;;6.60;99.90;;;;;;8352854;28;20021;-82
2023/10/04 06:37:04;;;;;;;5.32;2.40;;;6.70;99.90;;;;;;8342034;28;20033;-83
2023/10/04 06:41:05;;;;;;;4.82;2.90;;;6.80;99.90;;;;;;8356488;28;20048;-82
2023/10/04 06:45:07;;;;;;;5.25;3.28;;;7.00;99.90;;;;;;8347840;28;20029;-82
2023/10/04 06:49:08;;;;;;;4.40;2.92;;;7.30;99.90;;;;;;8333559;28;20032;-83
2023/10/04 06:53:09;;;;;;;4.13;2.50;;;7.60;99.90;;;;;;8365155;28;20077;-82
2023/10/04 06:57:10;;;;;;;6.30;2.80;;;7.90;99.90;;;;;;8341248;28;20025;-82
2023/10/04 07:01:10;;;;;;;3.55;2.65;;;8.30;99.90;;;;;;8347826;28;20024;-83
2023/10/04 07:05:14;;;;;;;5.05;2.78;;;8.60;99.90;;;;;;8354608;28;20013;-82
2023/10/04 07:09:15;;;;;;;6.18;3.00;;;8.70;99.90;;;;;;8360230;28;20017;-82
2023/10/04 07:13:16;;;;;;;4.75;2.35;;;8.90;99.90;;;;;;8351332;28;20017;-83
2023/10/04 07:17:19;;;;;;;3.33;2.50;;;8.90;99.90;;;;;;8349176;28;20040;-82
2023/10/04 07:21:19;;;;;;;3.90;2.80;;;9.00;99.90;;;;;;8354041;28;20049;-82
2023/10/04 07:25:20;;;;;;;3.65;2.70;;;8.90;99.90;;;;;;8353176;28;20504;-82
2023/10/04 07:29:21;;;;;;;5.28;3.15;;;8.90;99.90;;;;;;8345423;28;20070;-83
2023/10/04 07:33:21;;;;;;;4.40;2.70;;;9.10;99.90;;;;;;8352392;28;20017;-83
2023/10/04 07:37:22;;;;;;;4.10;2.88;;;9.20;99.90;;;;;;8347382;28;20029;-82
2023/10/04 07:41:23;;;;;;;3.80;2.80;;;9.20;99.90;;;;;;8357137;28;20029;-83
2023/10/04 07:45:28;;;;;;;5.65;2.95;;;9.40;99.90;;;;;;8353272;28;20021;-82
2023/10/04 07:49:29;;;;;;;4.82;3.17;;;9.80;99.90;;;;;;8352832;28;20017;-83
2023/10/04 07:53:30;;;;;;;4.35;2.83;;;10.00;99.90;;;;;;8355887;28;20021;-82
2023/10/04 07:57:41;;;;;;;5.72;2.67;;;10.60;99.90;;;;;;8341891;28;20013;-82
2023/10/04 08:01:41;;;;;;;4.03;2.63;;;10.90;99.90;;;;;;8347632;28;20068;-82
2023/10/04 08:05:42;;;;;;;3.95;2.67;;;11.10;99.90;;;;;;8362509;28;20060;-82
2023/10/04 08:09:43;;;;;;;3.53;1.70;;;11.10;99.90;;;;;;8346948;28;20064;-83
2023/10/04 08:13:46;;;;;;;4.60;2.25;;;11.70;99.90;;;;;;8352939;28;20020;-82
2023/10/04 08:17:52;;;;;;;5.88;1.67;;;11.60;99.90;;;;;;8344910;28;20710;-82
2023/10/04 08:21:52;;;;;;;4.72;1.73;;;11.90;99.90;;;;;;8343153;28;20392;-82
2023/10/04 08:25:53;;;;;;;3.72;1.23;;;11.90;99.90;;;;;;8358311;28;20028;-82
2023/10/04 08:29:54;;;;;;;1.90;1.13;;;12.00;99.90;;;;;;8365431;28;20021;-82
2023/10/04 08:33:55;;;;;;;1.90;1.00;;;12.40;99.90;;;;;;8350539;28;20504;-82
2023/10/04 08:37:57;;;;;;;1.70;1.05;;;12.50;99.90;;;;;;8357739;28;20032;-83
2023/10/04 08:41:59;;;;;;;4.05;1.42;;;12.60;99.90;;;;;;8356630;28;20029;-83
2023/10/04 08:46:01;;;;;;;2.50;1.30;;;12.70;99.90;;;;;;8351152;28;20021;-82
2023/10/04 08:50:06;;;;;;;3.28;1.55;;;13.00;99.90;;;;;;8362178;28;20025;-82
2023/10/04 08:54:13;;;;;;;1.92;1.20;;;13.30;99.90;;;;;;8335572;28;20041;-82
2023/10/04 08:58:15;;;;;;;2.58;1.25;;;13.50;99.90;;;;;;8355447;28;20170;-82
2023/10/04 09:02:20;;;;;;;5.82;1.77;;;13.70;99.90;;;;;;8348654;28;20028;-82
2023/10/04 09:06:21;;;;;;;2.08;1.02;;;13.70;99.90;;;;;;8355074;28;20028;-82
2023/10/04 09:10:23;;;;;;;3.63;1.15;;;14.00;99.90;;;;;;8349899;28;20017;-83
2023/10/04 09:14:25;;;;;;;3.58;1.10;;;14.20;99.90;;;;;;8348912;28;20527;-82
2023/10/04 09:18:26;;;;;;;3.60;1.00;;;14.60;99.90;;;;;;8366169;28;20035;-82
2023/10/04 09:22:31;;;;;;;1.90;0.93;;;15.00;99.90;;;;;;8360756;28;20066;-83
2023/10/04 09:26:31;;;;;;;2.03;0.90;;;15.60;99.90;;;;;;8349417;28;20025;-82
2023/10/04 09:30:34;;;;;;;2.70;1.00;;;16.10;99.90;;;;;;8363818;28;20025;-84
2023/10/04 09:34:34;;;;;;;2.67;0.90;;;16.60;99.90;;;;;;8350120;28;20489;-83
2023/10/04 09:38:35;;;;;;;2.45;1.10;;;16.70;99.90;;;;;;8350295;28;20063;-83
2023/10/04 09:42:46;;;;;;;3.60;1.20;;;16.70;99.90;;;;;;8368060;28;20017;-82
2023/10/04 09:46:56;;;;;;;2.33;0.93;;;16.70;99.90;;;;;;8361524;28;20032;-82
2023/10/04 09:51:09;;;;;;;1.75;0.85;;;16.90;99.90;;;;;;8361617;28;20051;-82
2023/10/04 09:55:12;;;;;;;2.95;1.10;;;17.30;99.90;;;;;;8330455;28;20310;-82
2023/10/04 09:59:19;;;;;;;1.77;0.98;;;17.90;99.90;;;;;;8348360;28;20492;-83
2023/10/04 10:03:28;;;;;;;2.70;1.35;;;18.60;99.90;;;;;;8364860;28;20104;-83
2023/10/04 10:07:33;;;;;;;3.15;1.00;;;19.40;99.90;;;;;;8346412;28;20497;-83
2023/10/04 10:11:34;;;;;;;1.42;0.80;;;20.30;99.90;;;;;;8355122;28;20025;-83
2023/10/04 10:15:38;;;;;;;1.92;0.93;;;20.70;99.90;;;;;;8346112;28;20037;-83
2023/10/04 10:19:39;;;;;;;1.65;1.00;;;20.30;99.90;;;;;;8354667;28;20027;-83
2023/10/04 10:23:56;;;;;;;1.25;0.88;;;19.70;99.90;;;;;;8360245;28;20029;-83
2023/10/04 10:27:57;;;;;;;2.78;1.20;;;19.20;99.90;;;;;;8362405;28;20078;-82
2023/10/04 10:32:00;;;;;;;1.40;0.80;;;19.30;99.90;;;;;;8345949;28;20027;-83
2023/10/04 10:36:03;;;;;;;3.03;1.00;;;19.10;99.90;;;;;;8363471;28;20033;-82
2023/10/04 10:40:24;;;;;;;1.85;0.80;;;19.20;99.90;;;;;;8353041;28;20029;-83
2023/10/04 10:44:30;;;;;;;;;;;19.70;99.90;;;;;;8363374;28;20056;-83
2023/10/04 10:48:33;;;;;;;2.03;1.10;;;20.30;99.90;;;;;;8363049;28;19905;-83
2023/10/04 10:52:44;;;;;;;2.60;1.02;;;21.10;99.90;;;;;;8347374;28;20021;-83
2023/10/04 10:56:44;;;;;;;1.50;1.00;;;22.50;99.90;;;;;;8361690;28;20075;-83
2023/10/04 11:00:46;;;;;;;2.65;0.98;;;23.80;99.90;;;;;;8358112;28;20482;-84
2023/10/04 11:04:46;;;;;;;2.55;1.30;;;22.90;99.90;;;;;;8345481;28;20025;-83
2023/10/04 11:08:48;;;;;;;2.55;0.80;;;22.90;99.30;;;;;;8350808;28;20021;-83
2023/10/04 11:12:51;;;;;;;2.80;1.00;;;22.60;99.90;;;;;;8345057;28;20496;-83
2023/10/04 11:16:52;;;;;;;2.28;1.15;;;20.30;99.90;;;;;;8350630;28;20040;-84
2023/10/04 11:21:00;;;;;;;1.67;1.00;;;20.60;99.90;;;;;;8354859;28;20033;-83
2023/10/04 11:25:01;;;;;;;2.97;1.00;;;21.00;99.90;;;;;;8350809;28;20477;-83
2023/10/04 11:29:01;;;;;;;4.47;1.40;;;21.80;99.90;;;;;;8361810;28;20057;-83
2023/10/04 11:33:03;;;;;;;1.85;0.77;;;20.70;99.90;;;;;;8344557;28;20500;-83
2023/10/04 11:37:04;;;;;;;3.38;1.70;;;21.20;99.90;;;;;;8343707;28;20025;-82
2023/10/04 11:41:05;;;;;;;2.15;1.05;;;22.00;99.90;;;;;;8348330;28;20496;-83
2023/10/04 11:45:23;;;;;;;2.03;1.15;;;21.10;99.90;;;;;;8362223;28;20052;-83
2023/10/04 11:49:28;;;;;;;2.17;1.17;;;21.50;99.90;;;;;;8338547;28;20025;-84
2023/10/04 11:53:33;;;;;;;2.08;1.20;;;23.20;99.70;;;;;;8351306;28;20021;-83
2023/10/04 11:57:37;;;;;;;3.97;1.27;;;22.20;98.60;;;;;;8357486;28;20024;-83
2023/10/04 12:01:47;;;;;;;1.98;1.27;;;19.80;99.90;;;;;;8349343;28;20021;-83
2023/10/04 12:05:47;;;;;;;1.87;1.10;;;18.70;99.90;;;;;;8359942;28;20120;-83
2023/10/04 12:09:48;;;;;;;2.22;1.10;;;20.00;99.90;;;;;;8369059;28;20382;-82
2023/10/04 12:13:49;;;;;;;4.53;1.10;;;20.60;99.90;;;;;;8369258;28;20480;-83
2023/10/04 12:17:50;;;;;;;2.80;1.05;;;19.10;99.90;;;;;;8369160;28;20025;-83
2023/10/04 12:21:51;;;;;;;3.78;1.30;;;18.50;99.90;;;;;;8369968;28;20640;-83
2023/10/04 12:25:51;;;;;;;3.38;1.10;;;19.00;99.90;;;;;;8358197;28;20033;-83
2023/10/04 12:29:51;;;;;;;0.98;0.82;;;19.80;99.90;;;;;;8370208;28;20021;-84
2023/10/04 12:33:55;;;;;;;2.65;1.23;;;20.80;99.90;;;;;;8369867;28;20053;-84
2023/10/04 12:37:56;;;;;;;2.28;1.13;;;21.30;99.90;;;;;;8368091;28;20020;-83
2023/10/04 12:41:59;;;;;;;2.38;1.10;;;22.20;98.90;;;;;;8359356;28;20101;-83
2023/10/04 12:46:01;;;;;;;2.75;1.30;;;22.90;98.00;;;;;;8351428;28;20076;-84
2023/10/04 12:50:02;;;;;;;2.15;0.98;;;23.90;95.40;;;;;;8352859;28;20021;-84
2023/10/04 12:54:03;;;;;;;3.78;1.40;;;23.80;93.50;;;;;;8354182;28;20489;-84
2023/10/04 12:58:04;;;;;;;4.72;1.27;;;23.80;95.00;;;;;;8361923;28;20033;-83
2023/10/04 13:02:05;;;;;;;1.80;1.17;;;23.80;93.00;;;;;;8356925;28;20064;-84
2023/10/04 13:06:11;;;;;;;1.70;1.20;;;23.90;91.00;;;;;;8351320;28;20120;-84
2023/10/04 13:10:11;;;;;;;2.38;1.20;;;24.50;90.20;;;;;;8357135;28;20401;-83
2023/10/04 13:14:12;;;;;;;2.25;1.23;;;26.40;87.60;;;;;;8350435;28;20115;-85
2023/10/04 13:18:13;;;;;;;1.67;0.98;;;26.80;82.40;;;;;;8364967;28;20033;-84
2023/10/04 13:22:13;;;;;;;2.47;1.10;;;27.00;80.10;;;;;;8368382;28;21103;-84
2023/10/04 13:26:14;;;;;;;3.00;1.10;;;26.30;79.10;;;;;;8368283;28;20031;-84
2023/10/04 13:30:15;;;;;;;2.30;1.00;;;25.40;85.80;;;;;;8369689;28;20045;-84
2023/10/04 13:34:16;;;;;;;2.20;1.50;;;25.40;83.00;;;;;;8352597;28;20055;-85
2023/10/04 13:38:18;;;;;;;4.15;1.30;;;24.70;86.20;;;;;;8367033;28;20037;-84
2023/10/04 13:42:19;;;;;;;2.15;1.10;;;25.60;83.20;;;;;;8357230;28;20025;-83
2023/10/04 13:46:20;;;;;;;2.28;1.20;;;25.50;78.40;;;;;;8356825;28;20558;-86
2023/10/04 13:50:24;;;;;;;2.65;1.15;;;25.30;82.60;;;;;;8350140;28;20023;-84
2023/10/04 13:54:25;;;;;;;1.92;1.00;;;24.60;81.80;;;;;;8358188;28;20032;-84
2023/10/04 13:58:26;;;;;;;2.75;1.08;;;24.80;80.40;;;;;;8356021;28;20379;-84
2023/10/04 14:02:26;;;;;;;1.63;1.13;;;24.60;80.50;;;;;;8368440;28;20104;-84
2023/10/04 14:06:27;;;;;;;2.20;1.00;;;24.50;79.20;;;;;;8356302;28;20613;-84
2023/10/04 14:10:27;;;;;;;2.20;1.02;;;23.50;77.50;;;;;;8356481;28;20029;-84
2023/10/04 14:14:29;;;;;;;1.67;1.10;;;24.10;83.90;;;;;;8359372;28;20044;-84
2023/10/04 14:18:30;;;;;;;2.78;0.95;;;24.60;73.60;;;;;;8366393;28;20025;-84
2023/10/04 14:22:31;;;;;;;3.00;1.38;;;25.00;75.40;;;;;;8367629;28;20021;-84
2023/10/04 14:26:33;;;;;;;3.25;1.10;;;24.30;81.20;;;;;;8361712;28;20029;-85
2023/10/04 14:30:33;;;;;;;2.55;1.17;;;23.30;85.00;;;;;;8361148;28;20023;-84
2023/10/04 14:34:34;;;;;;;1.42;0.98;;;22.10;88.20;;;;;;8351840;28;20397;-84
2023/10/04 14:38:35;;;;;;;1.48;0.82;;;21.00;90.10;;;;;;8364104;28;20021;-84
2023/10/04 14:42:37;;;;;;;3.80;1.17;;;20.30;89.60;;;;;;8356500;28;20024;-85
2023/10/04 14:46:38;;;;;;;1.73;1.27;;;19.80;91.80;;;;;;8353675;28;20485;-84
2023/10/04 14:50:38;;;;;;;2.20;0.98;;;19.50;94.80;;;;;;8339151;28;20026;-85
2023/10/04 14:54:39;;;;;;;2.08;1.23;;;19.30;94.80;;;;;;8348415;28;20021;-85
2023/10/04 14:58:39;;;;;;;3.28;1.33;;;19.60;93.60;;;;;;8358748;28;20086;-84
2023/10/04 15:02:40;;;;;;;2.28;1.17;;;19.60;95.30;;;;;;8358546;28;20043;-84
2023/10/04 15:06:41;;;;;;;2.05;0.90;;;19.50;94.80;;;;;;8358729;28;20082;-84
2023/10/04 15:10:41;;;;;;;2.72;1.10;;;19.30;97.80;;;;;;8356710;28;20028;-85
2023/10/04 15:14:42;;;;;;;1.85;1.02;;;19.30;96.90;;;;;;8359120;28;20067;-84
2023/10/04 15:18:43;;;;;;;2.95;1.38;;;19.20;97.10;;;;;;8364283;28;20095;-84
2023/10/04 15:22:44;;;;;;;4.45;1.10;;;19.00;96.70;;;;;;8363043;28;20100;-84
2023/10/04 15:26:45;;;;;;;3.33;1.38;;;18.80;97.80;;;;;;8349365;28;20119;-86
2023/10/04 15:30:45;;;;;;;2.50;1.30;;;18.70;99.90;;;;;;8344741;28;20032;-87
2023/10/04 15:34:46;;;;;;;2.88;1.00;;;18.30;99.90;;;;;;8347858;28;20033;-88
2023/10/04 15:38:52;;;;;;;1.30;0.85;;;18.20;99.90;;;;;;8345411;28;20311;-87
2023/10/04 15:42:53;;;;;;;3.97;1.10;;;17.90;99.90;;;;;;8343466;28;20489;-86
2023/10/04 15:46:54;;;;;;;3.45;1.20;;;18.10;99.90;;;;;;8349196;28;20025;-86
2023/10/04 15:50:54;;;;;;;2.53;1.10;;;17.70;99.90;;;;;;8347472;28;20029;-86
2023/10/04 15:54:56;;;;;;;2.45;0.98;;;17.10;99.90;;;;;;8357051;28;20644;-87
2023/10/04 15:58:57;;;;;;;3.00;1.10;;;16.70;99.90;;;;;;8337586;28;20029;-86
2023/10/04 16:02:57;;;;;;;2.70;1.30;;;16.50;99.90;;;;;;8338372;28;20037;-86
2023/10/04 16:06:58;;;;;;;3.88;1.10;;;16.10;99.90;;;;;;8347218;28;20508;-86
2023/10/04 16:10:59;;;;;;;1.98;1.00;;;15.80;99.90;;;;;;8347396;28;20029;-86
2023/10/04 16:15:03;;;;;;;2.47;1.15;;;15.50;99.90;;;;;;8340037;28;20041;-86
2023/10/04 16:19:04;;;;;;;4.30;1.23;;;15.30;99.90;;;;;;8350892;28;20029;-86
2023/10/04 16:23:05;;;;;;;2.20;1.13;;;15.30;99.90;;;;;;8350492;28;20117;-86
2023/10/04 16:27:06;;;;;;;1.50;1.10;;;14.80;99.90;;;;;;8342327;28;20029;-86
2023/10/04 16:31:07;;;;;;;2.60;1.10;;;14.40;99.90;;;;;;8358794;28;20022;-86
2023/10/04 16:35:13;;;;;;;2.85;1.50;;;14.10;99.90;;;;;;8350604;28;20495;-86
2023/10/04 16:39:14;;;;;;;2.80;1.27;;;14.00;99.90;;;;;;8343611;28;20081;-86
2023/10/04 16:43:15;;;;;;;2.50;1.17;;;13.90;99.90;;;;;;8351015;28;20091;-86
2023/10/04 16:47:15;;;;;;;3.03;1.40;;;13.70;99.90;;;;;;8355752;28;20025;-86
2023/10/04 16:51:16;;;;;;;3.85;1.70;;;13.50;99.90;;;;;;8349175;28;20505;-86
2023/10/04 16:55:16;;;;;;;2.72;1.65;;;13.20;99.90;;;;;;8360389;28;20121;-86
2023/10/04 16:59:19;;;;;;;1.88;1.30;;;13.00;99.90;;;;;;8341737;28;20505;-86
2023/10/04 17:03:20;;;;;;;3.28;1.75;;;12.50;99.90;;;;;;8348899;28;20057;-86
2023/10/04 17:07:22;;;;;;;4.80;2.28;;;12.30;99.90;;;;;;8355195;28;20028;-86
2023/10/04 17:11:23;;;;;;;8.15;3.60;;;12.20;99.90;;;;;;8348414;28;20086;-85
2023/10/04 17:15:23;;;;;;;4.45;2.22;;;12.20;99.90;;;;;;8365348;28;20033;-84
2023/10/04 17:19:24;;;;;;;2.25;1.23;;;12.10;99.90;;;;;;8359195;28;20029;-84
2023/10/04 17:23:24;;;;;;;1.67;1.08;;;12.00;99.90;;;;;;8353100;28;20523;-85
2023/10/04 17:27:25;;;;;;;1.83;1.10;;;11.70;99.90;;;;;;8366619;28;20025;-85
2023/10/04 17:31:27;;;;;;;4.22;1.50;;;11.70;99.90;;;;;;8360324;28;20021;-85
2023/10/04 17:35:28;;;;;;;2.80;1.48;;;11.50;99.90;;;;;;8366742;28;20017;-85
2023/10/04 17:39:29;;;;;;;3.92;1.92;;;11.30;99.90;;;;;;8354891;28;20043;-85
2023/10/04 17:43:30;;;;;;;3.55;1.50;;;11.00;99.90;;;;;;8352182;28;20029;-85
2023/10/04 17:47:32;;;;;;;2.97;1.50;;;10.80;99.90;;;;;;8365277;28;20078;-85
2023/10/04 17:51:32;;;;;;;1.63;0.98;;;10.80;99.90;;;;;;8338922;28;20055;-85
2023/10/04 17:55:37;;;;;;;3.63;1.67;;;10.70;99.90;;;;;;8362044;28;20029;-85
2023/10/04 17:59:38;;;;;;;2.20;1.55;;;10.50;99.90;;;;;;8338157;28;20094;-85
2023/10/04 18:03:38;;;;;;;2.33;1.48;;;10.40;99.90;;;;;;8346130;28;20029;-85
2023/10/04 18:07:40;;;;;;;3.45;1.60;;;10.30;99.90;;;;;;8364771;28;20087;-84
2023/10/04 18:11:41;;;;;;;2.05;1.20;;;10.20;99.90;;;;;;8360740;28;20021;-84
2023/10/04 18:15:41;;;;;;;4.00;1.50;;;10.00;99.90;;;;;;8358969;28;20031;-84
2023/10/04 18:19:42;;;;;;;3.17;1.40;;;9.90;99.90;;;;;;8364601;28;20107;-85
2023/10/04 18:23:43;;;;;;;3.33;1.70;;;9.80;99.90;;;;;;8365096;28;20074;-85
2023/10/04 18:27:44;;;;;;;2.47;1.55;;;9.60;99.90;;;;;;8347495;28;20021;-85
2023/10/04 18:31:44;;;;;;;3.33;1.80;;;9.50;99.90;;;;;;8357135;28;20481;-85
2023/10/04 18:35:45;;;;;;;2.83;1.45;;;9.40;99.90;;;;;;8344301;28;20039;-85
2023/10/04 18:39:45;;;;;;;3.03;1.42;;;9.30;99.90;;;;;;8346352;28;20504;-85
2023/10/04 18:43:46;;;;;;;1.98;1.40;;;9.20;99.90;;;;;;8357612;28;20052;-85
2023/10/04 18:47:46;;;;;;;2.42;1.42;;;9.10;99.90;;;;;;8344336;28;20429;-85
2023/10/04 18:51:47;;;;;;;2.85;1.60;;;9.20;99.90;;;;;;8341046;28;20040;-85
2023/10/04 18:55:50;;;;;;;2.92;1.50;;;9.10;99.90;;;;;;8334283;28;20491;-85
2023/10/04 18:59:52;;;;;;;5.60;2.50;;;9.20;99.90;;;;;;8325238;28;20029;-85
2023/10/04 19:03:54;;;;;;;6.10;2.80;;;9.20;99.90;;;;;;8339469;28;20025;-85
2023/10/04 19:07:55;;;;;;;6.00;2.78;;;9.20;99.90;;;;;;8337568;28;20032;-85
2023/10/04 19:11:55;;;;;;;4.10;2.35;;;9.20;99.90;;;;;;8346267;28;20508;-84
2023/10/04 19:15:56;;;;;;;3.03;2.10;;;9.30;99.90;;;;;;8352644;28;20029;-84
2023/10/04 19:19:56;;;;;;;5.97;2.33;;;9.20;99.90;;;;;;8352217;28;20048;-85
2023/10/04 19:23:59;;;;;;;3.30;1.83;;;9.20;99.90;;;;;;8346397;28;20033;-85
2023/10/04 19:28:00;;;;;;;2.15;1.38;;;9.20;99.90;;;;;;8345030;28;20543;-86
2023/10/04 19:32:00;;;;;;;8.40;1.88;;;9.10;99.90;;;;;;8363761;28;20056;-85
2023/10/04 19:36:02;;;;;;;2.95;1.60;;;9.10;99.90;;;;;;8349820;28;20029;-85
2023/10/04 19:40:03;;;;;;;2.70;1.50;;;9.10;99.90;;;;;;8346543;28;20032;-85
2023/10/04 19:44:04;;;;;;;2.47;1.52;;;9.00;99.90;;;;;;8353138;28;20112;-85
2023/10/04 19:48:05;;;;;;;2.22;1.52;;;8.90;99.90;;;;;;8335993;28;20481;-85
2023/10/04 19:52:05;;;;;;;3.17;1.73;;;8.80;99.90;;;;;;8342802;28;20082;-85
2023/10/04 19:56:06;;;;;;;2.67;1.70;;;8.90;99.90;;;;;;8355918;28;20033;-86
2023/10/04 20:00:17;;;;;;;2.95;1.90;;;9.10;99.90;;;;;;8342699;28;20601;-85
2023/10/04 20:04:18;;;;;;;4.18;1.80;;;9.10;99.90;;;;;;8348298;28;20036;-85
2023/10/04 20:08:22;;;;;;;4.78;1.95;;;9.00;99.90;;;;;;8362047;28;20040;-85
2023/10/04 20:12:22;;;;;;;3.55;2.17;;;9.00;99.90;;;;;;8351055;28;20036;-85
2023/10/04 20:16:24;;;;;;;4.63;1.88;;;8.80;99.90;;;;;;8348224;28;20456;-85
2023/10/04 20:20:27;;;;;;;2.60;1.73;;;8.80;99.90;;;;;;8354887;28;20048;-85
2023/10/04 20:24:27;;;;;;;2.58;1.70;;;8.70;99.90;;;;;;8368850;28;20112;-85
2023/10/04 20:28:28;;;;;;;3.90;2.05;;;8.50;99.90;;;;;;8351032;28;20025;-85
2023/10/04 20:32:29;;;;;;;4.63;1.85;;;8.30;99.90;;;;;;8349014;28;20024;-84
2023/10/04 20:36:29;;;;;;;4.72;2.70;;;8.20;99.90;;;;;;8347505;28;20020;-82
2023/10/04 20:40:30;;;;;;;5.20;2.45;;;8.20;99.90;;;;;;8347211;28;20079;-83
2023/10/04 20:44:30;;;;;;;6.10;2.40;;;8.20;99.90;;;;;;8353839;28;20095;-83
2023/10/04 20:48:31;;;;;;;6.38;2.70;;;8.00;99.90;;;;;;8364790;28;20025;-83
2023/10/04 20:52:32;;;;;;;4.57;2.67;;;7.80;99.90;;;;;;8359000;28;20012;-83
2023/10/04 20:56:33;;;;;;;5.13;2.53;;;7.60;99.90;;;;;;8334254;28;21009;-83
2023/10/04 21:00:34;;;;;;;4.00;2.47;;;7.50;99.90;;;;;;8347716;28;20037;-82
2023/10/04 21:04:34;;;;;;;7.25;1.90;;;7.40;99.90;;;;;;8348630;28;20051;-83
2023/10/04 21:08:35;;;;;;;4.93;2.15;;;7.30;99.90;;;;;;8367113;28;20625;-82